sensor_id;sensor_type;location;lat;lon;timestamp;P1;durP1;ratioP1;P2;durP2;ratioP2
6868;SDS011;3473;42.604;23.496;2022-11-15T00:00:51;2.27;;;1.90;;
6868;SDS011;3473;42.604;23.496;2022-11-15T00:02:23;7.93;;;3.77;;
6868;SDS011;3473;42.604;23.496;2022-11-15T00:03:55;4.90;;;2.23;;
6868;SDS011;3473;42.604;23.496;2022-11-15T00:05:27;14.23;;;4.27;;
6868;SDS011;3473;42.604;23.496;2022-11-15T00:06:58;2.37;;;1.97;;
6868;SDS011;3473;42.604;23.496;2022-11-15T00:08:30;9.80;;;3.47;;
6868;SDS011;3473;42.604;23.496;2022-11-15T00:10:02;14.03;;;6.13;;
6868;SDS011;3473;42.604;23.496;2022-11-15T00:11:34;11.63;;;4.63;;
6868;SDS011;3473;42.604;23.496;2022-11-15T00:13:05;12.53;;;5.17;;
6868;SDS011;3473;42.604;23.496;2022-11-15T00:14:37;1.60;;;1.30;;
6868;SDS011;3473;42.604;23.496;2022-11-15T00:16:09;3.90;;;1.70;;
6868;SDS011;3473;42.604;23.496;2022-11-15T00:17:41;2.73;;;1.53;;
6868;SDS011;3473;42.604;23.496;2022-11-15T00:19:15;2.00;;;1.33;;
6868;SDS011;3473;42.604;23.496;2022-11-15T00:20:46;3.20;;;1.70;;
6868;SDS011;3473;42.604;23.496;2022-11-15T00:22:17;2.30;;;1.40;;
6868;SDS011;3473;42.604;23.496;2022-11-15T00:23:48;1.67;;;1.07;;
6868;SDS011;3473;42.604;23.496;2022-11-15T00:25:20;4.40;;;2.33;;
6868;SDS011;3473;42.604;23.496;2022-11-15T00:26:50;7.17;;;1.17;;
6868;SDS011;3473;42.604;23.496;2022-11-15T00:28:22;4.20;;;2.50;;
6868;SDS011;3473;42.604;23.496;2022-11-15T00:29:53;13.80;;;3.17;;
6868;SDS011;3473;42.604;23.496;2022-11-15T00:31:24;5.00;;;3.43;;
6868;SDS011;3473;42.604;23.496;2022-11-15T00:32:55;6.40;;;2.97;;
6868;SDS011;3473;42.604;23.496;2022-11-15T00:34:27;5.03;;;2.53;;
6868;SDS011;3473;42.604;23.496;2022-11-15T00:35:59;26.10;;;6.27;;
6868;SDS011;3473;42.604;23.496;2022-11-15T00:37:29;9.93;;;4.40;;
6868;SDS011;3473;42.604;23.496;2022-11-15T00:39:03;14.50;;;4.00;;
6868;SDS011;3473;42.604;23.496;2022-11-15T00:40:34;3.03;;;2.27;;
6868;SDS011;3473;42.604;23.496;2022-11-15T00:42:06;6.53;;;2.63;;
6868;SDS011;3473;42.604;23.496;2022-11-15T00:43:37;7.17;;;2.83;;
6868;SDS011;3473;42.604;23.496;2022-11-15T00:45:09;2.90;;;1.80;;
6868;SDS011;3473;42.604;23.496;2022-11-15T00:46:41;7.50;;;2.53;;
6868;SDS011;3473;42.604;23.496;2022-11-15T00:48:12;7.23;;;2.27;;
6868;SDS011;3473;42.604;23.496;2022-11-15T00:49:45;5.40;;;2.50;;
6868;SDS011;3473;42.604;23.496;2022-11-15T00:51:16;8.10;;;2.83;;
6868;SDS011;3473;42.604;23.496;2022-11-15T00:52:47;3.43;;;2.03;;
6868;SDS011;3473;42.604;23.496;2022-11-15T00:54:19;6.30;;;2.23;;
6868;SDS011;3473;42.604;23.496;2022-11-15T00:55:50;5.70;;;2.47;;
6868;SDS011;3473;42.604;23.496;2022-11-15T00:57:21;4.43;;;1.80;;
6868;SDS011;3473;42.604;23.496;2022-11-15T00:58:52;4.77;;;2.73;;
6868;SDS011;3473;42.604;23.496;2022-11-15T01:00:24;3.80;;;2.03;;
6868;SDS011;3473;42.604;23.496;2022-11-15T01:01:55;3.47;;;2.00;;
6868;SDS011;3473;42.604;23.496;2022-11-15T01:03:27;3.43;;;2.23;;
6868;SDS011;3473;42.604;23.496;2022-11-15T01:04:58;3.23;;;2.10;;
6868;SDS011;3473;42.604;23.496;2022-11-15T01:06:30;4.90;;;2.07;;
6868;SDS011;3473;42.604;23.496;2022-11-15T01:08:00;4.60;;;2.80;;
6868;SDS011;3473;42.604;23.496;2022-11-15T01:09:32;3.00;;;2.03;;
6868;SDS011;3473;42.604;23.496;2022-11-15T01:11:03;4.17;;;2.17;;
6868;SDS011;3473;42.604;23.496;2022-11-15T01:12:35;4.43;;;2.27;;
6868;SDS011;3473;42.604;23.496;2022-11-15T01:14:07;2.50;;;1.47;;
6868;SDS011;3473;42.604;23.496;2022-11-15T01:15:39;0.63;;;0.63;;
6868;SDS011;3473;42.604;23.496;2022-11-15T01:17:09;3.37;;;2.03;;
6868;SDS011;3473;42.604;23.496;2022-11-15T01:18:41;2.23;;;1.00;;
6868;SDS011;3473;42.604;23.496;2022-11-15T01:20:14;5.53;;;1.40;;
6868;SDS011;3473;42.604;23.496;2022-11-15T01:21:44;1.13;;;1.00;;
6868;SDS011;3473;42.604;23.496;2022-11-15T01:23:16;4.07;;;1.57;;
6868;SDS011;3473;42.604;23.496;2022-11-15T01:24:49;2.07;;;1.07;;
6868;SDS011;3473;42.604;23.496;2022-11-15T01:26:20;2.23;;;1.03;;
6868;SDS011;3473;42.604;23.496;2022-11-15T01:27:52;1.27;;;1.17;;
6868;SDS011;3473;42.604;23.496;2022-11-15T01:29:23;2.37;;;1.03;;
6868;SDS011;3473;42.604;23.496;2022-11-15T01:30:57;4.37;;;1.40;;
6868;SDS011;3473;42.604;23.496;2022-11-15T01:32:28;4.33;;;1.27;;
6868;SDS011;3473;42.604;23.496;2022-11-15T01:34:00;4.57;;;1.10;;
6868;SDS011;3473;42.604;23.496;2022-11-15T01:35:32;3.97;;;1.63;;
6868;SDS011;3473;42.604;23.496;2022-11-15T01:37:04;1.53;;;0.90;;
6868;SDS011;3473;42.604;23.496;2022-11-15T01:38:35;2.10;;;1.13;;
6868;SDS011;3473;42.604;23.496;2022-11-15T01:40:07;1.23;;;0.97;;
6868;SDS011;3473;42.604;23.496;2022-11-15T01:41:39;14.70;;;4.03;;
6868;SDS011;3473;42.604;23.496;2022-11-15T01:43:19;5.43;;;2.03;;
6868;SDS011;3473;42.604;23.496;2022-11-15T01:44:51;11.70;;;1.97;;
6868;SDS011;3473;42.604;23.496;2022-11-15T01:46:27;15.03;;;3.93;;
6868;SDS011;3473;42.604;23.496;2022-11-15T01:47:59;4.63;;;2.30;;
6868;SDS011;3473;42.604;23.496;2022-11-15T01:49:32;9.03;;;3.53;;
6868;SDS011;3473;42.604;23.496;2022-11-15T01:51:06;5.93;;;1.70;;
6868;SDS011;3473;42.604;23.496;2022-11-15T01:52:38;3.97;;;2.10;;
6868;SDS011;3473;42.604;23.496;2022-11-15T01:54:11;4.47;;;2.00;;
6868;SDS011;3473;42.604;23.496;2022-11-15T01:55:43;2.87;;;1.70;;
6868;SDS011;3473;42.604;23.496;2022-11-15T01:57:15;2.63;;;1.37;;
6868;SDS011;3473;42.604;23.496;2022-11-15T01:58:47;1.70;;;1.17;;
6868;SDS011;3473;42.604;23.496;2022-11-15T02:00:18;0.67;;;0.67;;
6868;SDS011;3473;42.604;23.496;2022-11-15T02:01:50;2.40;;;1.47;;
6868;SDS011;3473;42.604;23.496;2022-11-15T02:03:22;1.13;;;0.83;;
6868;SDS011;3473;42.604;23.496;2022-11-15T02:04:56;0.87;;;0.87;;
6868;SDS011;3473;42.604;23.496;2022-11-15T02:06:29;2.27;;;1.07;;
6868;SDS011;3473;42.604;23.496;2022-11-15T02:08:01;2.33;;;1.33;;
6868;SDS011;3473;42.604;23.496;2022-11-15T02:09:32;0.67;;;0.67;;
6868;SDS011;3473;42.604;23.496;2022-11-15T02:11:04;1.70;;;1.33;;
6868;SDS011;3473;42.604;23.496;2022-11-15T02:12:36;1.90;;;1.00;;
6868;SDS011;3473;42.604;23.496;2022-11-15T02:14:07;4.30;;;2.20;;
6868;SDS011;3473;42.604;23.496;2022-11-15T02:15:40;2.37;;;1.87;;
6868;SDS011;3473;42.604;23.496;2022-11-15T02:17:27;2.53;;;1.60;;
6868;SDS011;3473;42.604;23.496;2022-11-15T02:19:02;2.30;;;1.90;;
6868;SDS011;3473;42.604;23.496;2022-11-15T02:20:43;7.80;;;1.37;;
6868;SDS011;3473;42.604;23.496;2022-11-15T02:22:21;3.40;;;1.70;;
6868;SDS011;3473;42.604;23.496;2022-11-15T02:24:11;3.90;;;2.13;;
6868;SDS011;3473;42.604;23.496;2022-11-15T02:25:50;4.27;;;2.33;;
6868;SDS011;3473;42.604;23.496;2022-11-15T02:27:38;8.23;;;3.53;;
6868;SDS011;3473;42.604;23.496;2022-11-15T02:29:12;2.50;;;2.13;;
6868;SDS011;3473;42.604;23.496;2022-11-15T02:30:47;3.53;;;1.87;;
6868;SDS011;3473;42.604;23.496;2022-11-15T02:32:20;2.03;;;1.40;;
6868;SDS011;3473;42.604;23.496;2022-11-15T02:33:53;4.60;;;2.07;;
6868;SDS011;3473;42.604;23.496;2022-11-15T02:35:28;3.00;;;2.07;;
6868;SDS011;3473;42.604;23.496;2022-11-15T02:37:02;4.80;;;2.17;;
6868;SDS011;3473;42.604;23.496;2022-11-15T02:38:37;2.57;;;1.63;;
6868;SDS011;3473;42.604;23.496;2022-11-15T02:40:12;2.10;;;1.80;;
6868;SDS011;3473;42.604;23.496;2022-11-15T02:41:47;4.17;;;1.97;;
6868;SDS011;3473;42.604;23.496;2022-11-15T02:43:21;4.03;;;2.27;;
6868;SDS011;3473;42.604;23.496;2022-11-15T02:45:15;1.90;;;1.43;;
6868;SDS011;3473;42.604;23.496;2022-11-15T02:46:50;4.20;;;2.33;;
6868;SDS011;3473;42.604;23.496;2022-11-15T02:48:40;9.60;;;3.00;;
6868;SDS011;3473;42.604;23.496;2022-11-15T02:50:13;4.67;;;2.33;;
6868;SDS011;3473;42.604;23.496;2022-11-15T02:51:46;5.70;;;1.57;;
6868;SDS011;3473;42.604;23.496;2022-11-15T02:53:23;2.83;;;1.77;;
6868;SDS011;3473;42.604;23.496;2022-11-15T02:54:54;6.07;;;1.70;;
6868;SDS011;3473;42.604;23.496;2022-11-15T02:56:26;3.90;;;1.73;;
6868;SDS011;3473;42.604;23.496;2022-11-15T02:58:01;5.57;;;1.23;;
6868;SDS011;3473;42.604;23.496;2022-11-15T02:59:41;10.85;;;4.28;;
6868;SDS011;3473;42.604;23.496;2022-11-15T03:01:16;4.33;;;2.67;;
6868;SDS011;3473;42.604;23.496;2022-11-15T03:02:58;4.73;;;3.20;;
6868;SDS011;3473;42.604;23.496;2022-11-15T03:04:36;7.37;;;2.83;;
6868;SDS011;3473;42.604;23.496;2022-11-15T03:06:13;7.97;;;2.95;;
6868;SDS011;3473;42.604;23.496;2022-11-15T03:07:48;5.13;;;2.60;;
6868;SDS011;3473;42.604;23.496;2022-11-15T03:09:26;3.30;;;1.67;;
6868;SDS011;3473;42.604;23.496;2022-11-15T03:11:02;5.63;;;2.33;;
6868;SDS011;3473;42.604;23.496;2022-11-15T03:12:35;9.47;;;2.40;;
6868;SDS011;3473;42.604;23.496;2022-11-15T03:14:10;6.53;;;1.63;;
6868;SDS011;3473;42.604;23.496;2022-11-15T03:15:43;3.28;;;1.98;;
6868;SDS011;3473;42.604;23.496;2022-11-15T03:17:18;3.53;;;2.10;;
6868;SDS011;3473;42.604;23.496;2022-11-15T03:18:53;2.23;;;1.77;;
6868;SDS011;3473;42.604;23.496;2022-11-15T03:20:27;2.90;;;1.90;;
6868;SDS011;3473;42.604;23.496;2022-11-15T03:21:59;8.07;;;3.93;;
6868;SDS011;3473;42.604;23.496;2022-11-15T03:23:32;9.47;;;4.50;;
6868;SDS011;3473;42.604;23.496;2022-11-15T03:25:05;7.07;;;3.20;;
6868;SDS011;3473;42.604;23.496;2022-11-15T03:26:38;7.27;;;2.20;;
6868;SDS011;3473;42.604;23.496;2022-11-15T03:28:11;9.97;;;4.17;;
6868;SDS011;3473;42.604;23.496;2022-11-15T03:29:44;5.82;;;3.55;;
6868;SDS011;3473;42.604;23.496;2022-11-15T03:31:17;6.63;;;3.30;;
6868;SDS011;3473;42.604;23.496;2022-11-15T03:33:08;8.37;;;3.90;;
6868;SDS011;3473;42.604;23.496;2022-11-15T03:34:41;3.23;;;2.27;;
6868;SDS011;3473;42.604;23.496;2022-11-15T03:36:15;2.93;;;2.27;;
6868;SDS011;3473;42.604;23.496;2022-11-15T03:37:48;4.07;;;2.03;;
6868;SDS011;3473;42.604;23.496;2022-11-15T03:39:21;8.67;;;2.67;;
6868;SDS011;3473;42.604;23.496;2022-11-15T03:40:54;6.45;;;2.33;;
6868;SDS011;3473;42.604;23.496;2022-11-15T03:42:27;8.20;;;2.10;;
6868;SDS011;3473;42.604;23.496;2022-11-15T03:44:03;3.40;;;2.13;;
6868;SDS011;3473;42.604;23.496;2022-11-15T03:45:37;5.57;;;3.07;;
6868;SDS011;3473;42.604;23.496;2022-11-15T03:47:12;4.88;;;3.10;;
6868;SDS011;3473;42.604;23.496;2022-11-15T03:48:52;7.10;;;3.30;;
6868;SDS011;3473;42.604;23.496;2022-11-15T03:50:26;8.05;;;4.07;;
6868;SDS011;3473;42.604;23.496;2022-11-15T03:51:58;5.90;;;3.22;;
6868;SDS011;3473;42.604;23.496;2022-11-15T03:53:29;8.67;;;3.77;;
6868;SDS011;3473;42.604;23.496;2022-11-15T03:55:01;5.87;;;2.73;;
6868;SDS011;3473;42.604;23.496;2022-11-15T03:56:33;6.60;;;3.27;;
6868;SDS011;3473;42.604;23.496;2022-11-15T03:58:04;4.97;;;2.67;;
6868;SDS011;3473;42.604;23.496;2022-11-15T03:59:35;4.22;;;1.92;;
6868;SDS011;3473;42.604;23.496;2022-11-15T04:01:06;9.23;;;2.73;;
6868;SDS011;3473;42.604;23.496;2022-11-15T04:02:37;4.33;;;2.20;;
6868;SDS011;3473;42.604;23.496;2022-11-15T04:04:09;2.05;;;1.58;;
6868;SDS011;3473;42.604;23.496;2022-11-15T04:05:42;1.40;;;1.10;;
6868;SDS011;3473;42.604;23.496;2022-11-15T04:07:13;3.37;;;1.57;;
6868;SDS011;3473;42.604;23.496;2022-11-15T04:08:45;6.37;;;2.27;;
6868;SDS011;3473;42.604;23.496;2022-11-15T04:10:15;1.93;;;1.47;;
6868;SDS011;3473;42.604;23.496;2022-11-15T04:11:47;2.65;;;2.13;;
6868;SDS011;3473;42.604;23.496;2022-11-15T04:13:17;5.37;;;2.20;;
6868;SDS011;3473;42.604;23.496;2022-11-15T04:14:49;2.37;;;1.33;;
6868;SDS011;3473;42.604;23.496;2022-11-15T04:16:37;1.85;;;1.50;;
6868;SDS011;3473;42.604;23.496;2022-11-15T04:18:08;6.33;;;2.50;;
6868;SDS011;3473;42.604;23.496;2022-11-15T04:19:40;2.37;;;1.80;;
6868;SDS011;3473;42.604;23.496;2022-11-15T04:21:31;4.43;;;2.23;;
6868;SDS011;3473;42.604;23.496;2022-11-15T04:23:21;2.90;;;1.73;;
6868;SDS011;3473;42.604;23.496;2022-11-15T04:25:10;4.13;;;2.25;;
6868;SDS011;3473;42.604;23.496;2022-11-15T04:26:41;8.38;;;2.78;;
6868;SDS011;3473;42.604;23.496;2022-11-15T04:28:13;7.90;;;2.77;;
6868;SDS011;3473;42.604;23.496;2022-11-15T04:29:44;4.83;;;3.23;;
6868;SDS011;3473;42.604;23.496;2022-11-15T04:31:15;3.33;;;2.17;;
6868;SDS011;3473;42.604;23.496;2022-11-15T04:32:46;2.93;;;2.33;;
6868;SDS011;3473;42.604;23.496;2022-11-15T04:34:18;3.30;;;2.57;;
6868;SDS011;3473;42.604;23.496;2022-11-15T04:35:49;2.77;;;2.30;;
6868;SDS011;3473;42.604;23.496;2022-11-15T04:37:36;15.40;;;5.77;;
6868;SDS011;3473;42.604;23.496;2022-11-15T04:39:08;14.93;;;6.03;;
6868;SDS011;3473;42.604;23.496;2022-11-15T04:40:39;15.90;;;2.63;;
6868;SDS011;3473;42.604;23.496;2022-11-15T04:42:10;4.70;;;2.20;;
6868;SDS011;3473;42.604;23.496;2022-11-15T04:43:41;6.07;;;2.93;;
6868;SDS011;3473;42.604;23.496;2022-11-15T04:45:12;6.80;;;3.80;;
6868;SDS011;3473;42.604;23.496;2022-11-15T04:46:44;7.00;;;2.90;;
6868;SDS011;3473;42.604;23.496;2022-11-15T04:48:15;3.67;;;2.00;;
6868;SDS011;3473;42.604;23.496;2022-11-15T04:49:47;3.63;;;1.90;;
6868;SDS011;3473;42.604;23.496;2022-11-15T04:51:18;4.80;;;2.83;;
6868;SDS011;3473;42.604;23.496;2022-11-15T04:52:51;5.10;;;1.77;;
6868;SDS011;3473;42.604;23.496;2022-11-15T04:54:23;3.17;;;1.87;;
6868;SDS011;3473;42.604;23.496;2022-11-15T04:55:53;3.40;;;2.00;;
6868;SDS011;3473;42.604;23.496;2022-11-15T04:57:25;5.80;;;2.20;;
6868;SDS011;3473;42.604;23.496;2022-11-15T04:58:55;3.93;;;1.13;;
6868;SDS011;3473;42.604;23.496;2022-11-15T05:00:27;4.63;;;1.70;;
6868;SDS011;3473;42.604;23.496;2022-11-15T05:01:59;1.47;;;1.03;;
6868;SDS011;3473;42.604;23.496;2022-11-15T05:03:30;5.27;;;2.47;;
6868;SDS011;3473;42.604;23.496;2022-11-15T05:05:19;51.40;;;11.57;;
6868;SDS011;3473;42.604;23.496;2022-11-15T05:06:50;49.17;;;13.60;;
6868;SDS011;3473;42.604;23.496;2022-11-15T05:08:23;9.80;;;3.93;;
6868;SDS011;3473;42.604;23.496;2022-11-15T05:09:54;27.67;;;7.27;;
6868;SDS011;3473;42.604;23.496;2022-11-15T05:11:26;52.10;;;9.17;;
6868;SDS011;3473;42.604;23.496;2022-11-15T05:12:58;15.43;;;5.40;;
6868;SDS011;3473;42.604;23.496;2022-11-15T05:14:28;5.30;;;2.73;;
6868;SDS011;3473;42.604;23.496;2022-11-15T05:16:00;7.90;;;2.47;;
6868;SDS011;3473;42.604;23.496;2022-11-15T05:17:31;2.63;;;1.83;;
6868;SDS011;3473;42.604;23.496;2022-11-15T05:19:02;16.50;;;2.67;;
6868;SDS011;3473;42.604;23.496;2022-11-15T05:20:34;2.43;;;1.60;;
6868;SDS011;3473;42.604;23.496;2022-11-15T05:22:06;2.97;;;2.20;;
6868;SDS011;3473;42.604;23.496;2022-11-15T05:23:38;5.10;;;2.17;;
6868;SDS011;3473;42.604;23.496;2022-11-15T05:25:09;3.67;;;2.03;;
6868;SDS011;3473;42.604;23.496;2022-11-15T05:26:40;5.50;;;2.63;;
6868;SDS011;3473;42.604;23.496;2022-11-15T05:28:12;5.73;;;1.63;;
6868;SDS011;3473;42.604;23.496;2022-11-15T05:29:43;3.70;;;1.70;;
6868;SDS011;3473;42.604;23.496;2022-11-15T05:31:15;1.58;;;1.17;;
6868;SDS011;3473;42.604;23.496;2022-11-15T05:32:46;8.03;;;2.00;;
6868;SDS011;3473;42.604;23.496;2022-11-15T05:34:18;3.55;;;2.10;;
6868;SDS011;3473;42.604;23.496;2022-11-15T05:35:54;1.20;;;1.10;;
6868;SDS011;3473;42.604;23.496;2022-11-15T05:37:27;4.13;;;2.00;;
6868;SDS011;3473;42.604;23.496;2022-11-15T05:39:01;2.67;;;2.00;;
6868;SDS011;3473;42.604;23.496;2022-11-15T05:40:32;2.90;;;2.00;;
6868;SDS011;3473;42.604;23.496;2022-11-15T05:42:05;3.37;;;2.57;;
6868;SDS011;3473;42.604;23.496;2022-11-15T05:43:36;2.80;;;2.47;;
6868;SDS011;3473;42.604;23.496;2022-11-15T05:45:09;6.30;;;1.60;;
6868;SDS011;3473;42.604;23.496;2022-11-15T05:46:41;4.40;;;2.17;;
6868;SDS011;3473;42.604;23.496;2022-11-15T05:48:13;3.17;;;2.40;;
6868;SDS011;3473;42.604;23.496;2022-11-15T05:49:45;6.53;;;2.13;;
6868;SDS011;3473;42.604;23.496;2022-11-15T05:51:17;2.57;;;1.30;;
6868;SDS011;3473;42.604;23.496;2022-11-15T05:52:50;3.33;;;1.67;;
6868;SDS011;3473;42.604;23.496;2022-11-15T05:54:23;1.30;;;1.17;;
6868;SDS011;3473;42.604;23.496;2022-11-15T05:55:55;3.50;;;1.93;;
6868;SDS011;3473;42.604;23.496;2022-11-15T05:57:27;7.87;;;2.93;;
6868;SDS011;3473;42.604;23.496;2022-11-15T05:58:58;17.10;;;6.07;;
6868;SDS011;3473;42.604;23.496;2022-11-15T06:00:30;9.10;;;3.80;;
6868;SDS011;3473;42.604;23.496;2022-11-15T06:02:01;27.47;;;10.10;;
6868;SDS011;3473;42.604;23.496;2022-11-15T06:03:33;16.83;;;7.33;;
6868;SDS011;3473;42.604;23.496;2022-11-15T06:05:04;10.53;;;5.50;;
6868;SDS011;3473;42.604;23.496;2022-11-15T06:06:36;5.43;;;1.60;;
6868;SDS011;3473;42.604;23.496;2022-11-15T06:08:07;1.80;;;1.23;;
6868;SDS011;3473;42.604;23.496;2022-11-15T06:09:39;7.40;;;2.83;;
6868;SDS011;3473;42.604;23.496;2022-11-15T06:11:11;6.77;;;2.73;;
6868;SDS011;3473;42.604;23.496;2022-11-15T06:12:42;15.33;;;4.33;;
6868;SDS011;3473;42.604;23.496;2022-11-15T06:14:14;5.67;;;3.40;;
6868;SDS011;3473;42.604;23.496;2022-11-15T06:15:45;2.20;;;2.00;;
6868;SDS011;3473;42.604;23.496;2022-11-15T06:17:17;2.10;;;1.73;;
6868;SDS011;3473;42.604;23.496;2022-11-15T06:18:48;4.63;;;1.97;;
6868;SDS011;3473;42.604;23.496;2022-11-15T06:20:20;1.80;;;1.07;;
6868;SDS011;3473;42.604;23.496;2022-11-15T06:21:52;1.70;;;1.43;;
6868;SDS011;3473;42.604;23.496;2022-11-15T06:23:23;3.33;;;2.23;;
6868;SDS011;3473;42.604;23.496;2022-11-15T06:24:56;2.80;;;1.50;;
6868;SDS011;3473;42.604;23.496;2022-11-15T06:26:27;6.47;;;3.37;;
6868;SDS011;3473;42.604;23.496;2022-11-15T06:27:59;7.77;;;4.10;;
6868;SDS011;3473;42.604;23.496;2022-11-15T06:29:30;5.40;;;2.77;;
6868;SDS011;3473;42.604;23.496;2022-11-15T06:31:02;6.40;;;2.10;;
6868;SDS011;3473;42.604;23.496;2022-11-15T06:32:33;0.80;;;0.73;;
6868;SDS011;3473;42.604;23.496;2022-11-15T06:34:05;2.77;;;1.57;;
6868;SDS011;3473;42.604;23.496;2022-11-15T06:35:36;1.73;;;0.97;;
6868;SDS011;3473;42.604;23.496;2022-11-15T06:37:08;2.27;;;1.17;;
6868;SDS011;3473;42.604;23.496;2022-11-15T06:38:39;2.47;;;1.33;;
6868;SDS011;3473;42.604;23.496;2022-11-15T06:40:12;1.80;;;1.50;;
6868;SDS011;3473;42.604;23.496;2022-11-15T06:41:44;2.40;;;1.60;;
6868;SDS011;3473;42.604;23.496;2022-11-15T06:43:15;1.57;;;1.47;;
6868;SDS011;3473;42.604;23.496;2022-11-15T06:44:47;4.87;;;1.67;;
6868;SDS011;3473;42.604;23.496;2022-11-15T06:46:18;2.13;;;1.30;;
6868;SDS011;3473;42.604;23.496;2022-11-15T06:47:50;5.43;;;1.67;;
6868;SDS011;3473;42.604;23.496;2022-11-15T06:49:21;4.87;;;1.17;;
6868;SDS011;3473;42.604;23.496;2022-11-15T06:50:53;4.53;;;2.13;;
6868;SDS011;3473;42.604;23.496;2022-11-15T06:52:26;2.97;;;1.20;;
6868;SDS011;3473;42.604;23.496;2022-11-15T06:54:02;3.40;;;1.60;;
6868;SDS011;3473;42.604;23.496;2022-11-15T06:55:35;3.37;;;1.70;;
6868;SDS011;3473;42.604;23.496;2022-11-15T06:57:06;1.50;;;1.33;;
6868;SDS011;3473;42.604;23.496;2022-11-15T06:58:38;1.97;;;1.40;;
6868;SDS011;3473;42.604;23.496;2022-11-15T07:00:10;5.40;;;1.80;;
6868;SDS011;3473;42.604;23.496;2022-11-15T07:01:41;2.00;;;1.40;;
6868;SDS011;3473;42.604;23.496;2022-11-15T07:03:13;9.13;;;1.87;;
6868;SDS011;3473;42.604;23.496;2022-11-15T07:04:44;1.43;;;1.13;;
6868;SDS011;3473;42.604;23.496;2022-11-15T07:06:16;6.70;;;2.10;;
6868;SDS011;3473;42.604;23.496;2022-11-15T07:07:51;6.13;;;2.03;;
6868;SDS011;3473;42.604;23.496;2022-11-15T07:09:22;3.47;;;1.27;;
6868;SDS011;3473;42.604;23.496;2022-11-15T07:10:55;3.27;;;1.70;;
6868;SDS011;3473;42.604;23.496;2022-11-15T07:12:28;1.93;;;1.47;;
6868;SDS011;3473;42.604;23.496;2022-11-15T07:14:00;6.93;;;2.17;;
6868;SDS011;3473;42.604;23.496;2022-11-15T07:15:31;2.43;;;1.80;;
6868;SDS011;3473;42.604;23.496;2022-11-15T07:17:03;5.77;;;1.97;;
6868;SDS011;3473;42.604;23.496;2022-11-15T07:18:35;4.20;;;1.80;;
6868;SDS011;3473;42.604;23.496;2022-11-15T07:20:07;5.83;;;2.57;;
6868;SDS011;3473;42.604;23.496;2022-11-15T07:21:39;6.40;;;1.93;;
6868;SDS011;3473;42.604;23.496;2022-11-15T07:23:10;2.93;;;1.37;;
6868;SDS011;3473;42.604;23.496;2022-11-15T07:24:42;9.20;;;2.53;;
6868;SDS011;3473;42.604;23.496;2022-11-15T07:26:15;2.97;;;1.47;;
6868;SDS011;3473;42.604;23.496;2022-11-15T07:27:53;1.17;;;1.00;;
6868;SDS011;3473;42.604;23.496;2022-11-15T07:29:25;1.20;;;1.00;;
6868;SDS011;3473;42.604;23.496;2022-11-15T07:30:56;8.30;;;2.17;;
6868;SDS011;3473;42.604;23.496;2022-11-15T07:32:28;8.70;;;2.10;;
6868;SDS011;3473;42.604;23.496;2022-11-15T07:33:59;2.60;;;1.73;;
6868;SDS011;3473;42.604;23.496;2022-11-15T07:35:31;3.00;;;1.70;;
6868;SDS011;3473;42.604;23.496;2022-11-15T07:37:03;9.30;;;1.70;;
6868;SDS011;3473;42.604;23.496;2022-11-15T07:38:34;7.87;;;2.57;;
6868;SDS011;3473;42.604;23.496;2022-11-15T07:40:07;2.63;;;1.90;;
6868;SDS011;3473;42.604;23.496;2022-11-15T07:41:40;3.00;;;1.47;;
6868;SDS011;3473;42.604;23.496;2022-11-15T07:43:13;3.17;;;1.60;;
6868;SDS011;3473;42.604;23.496;2022-11-15T07:44:44;15.03;;;1.53;;
6868;SDS011;3473;42.604;23.496;2022-11-15T07:46:15;2.70;;;1.47;;
6868;SDS011;3473;42.604;23.496;2022-11-15T07:47:47;4.03;;;2.00;;
6868;SDS011;3473;42.604;23.496;2022-11-15T07:49:18;3.83;;;1.60;;
6868;SDS011;3473;42.604;23.496;2022-11-15T07:50:49;2.97;;;1.63;;
6868;SDS011;3473;42.604;23.496;2022-11-15T07:52:21;8.80;;;3.00;;
6868;SDS011;3473;42.604;23.496;2022-11-15T07:53:52;4.23;;;2.30;;
6868;SDS011;3473;42.604;23.496;2022-11-15T07:55:24;13.27;;;2.63;;
6868;SDS011;3473;42.604;23.496;2022-11-15T07:56:58;6.73;;;2.63;;
6868;SDS011;3473;42.604;23.496;2022-11-15T07:58:30;2.13;;;1.93;;
6868;SDS011;3473;42.604;23.496;2022-11-15T08:00:01;6.30;;;2.40;;
6868;SDS011;3473;42.604;23.496;2022-11-15T08:01:33;6.00;;;2.17;;
6868;SDS011;3473;42.604;23.496;2022-11-15T08:03:05;2.53;;;1.33;;
6868;SDS011;3473;42.604;23.496;2022-11-15T08:04:36;2.77;;;1.87;;
6868;SDS011;3473;42.604;23.496;2022-11-15T08:06:08;2.40;;;1.73;;
6868;SDS011;3473;42.604;23.496;2022-11-15T08:07:39;4.13;;;1.77;;
6868;SDS011;3473;42.604;23.496;2022-11-15T08:09:11;3.93;;;1.60;;
6868;SDS011;3473;42.604;23.496;2022-11-15T08:10:42;2.87;;;1.73;;
6868;SDS011;3473;42.604;23.496;2022-11-15T08:12:15;4.50;;;2.17;;
6868;SDS011;3473;42.604;23.496;2022-11-15T08:13:47;5.47;;;2.10;;
6868;SDS011;3473;42.604;23.496;2022-11-15T08:15:18;1.87;;;1.13;;
6868;SDS011;3473;42.604;23.496;2022-11-15T08:16:50;8.00;;;2.33;;
6868;SDS011;3473;42.604;23.496;2022-11-15T08:18:22;9.60;;;2.53;;
6868;SDS011;3473;42.604;23.496;2022-11-15T08:19:54;5.97;;;2.10;;
6868;SDS011;3473;42.604;23.496;2022-11-15T08:21:25;4.93;;;2.40;;
6868;SDS011;3473;42.604;23.496;2022-11-15T08:22:57;5.17;;;2.47;;
6868;SDS011;3473;42.604;23.496;2022-11-15T08:24:28;10.17;;;2.63;;
6868;SDS011;3473;42.604;23.496;2022-11-15T08:26:00;10.10;;;3.20;;
6868;SDS011;3473;42.604;23.496;2022-11-15T08:27:34;5.40;;;2.67;;
6868;SDS011;3473;42.604;23.496;2022-11-15T08:29:05;5.70;;;2.87;;
6868;SDS011;3473;42.604;23.496;2022-11-15T08:30:37;6.80;;;2.67;;
6868;SDS011;3473;42.604;23.496;2022-11-15T08:32:11;10.73;;;2.50;;
6868;SDS011;3473;42.604;23.496;2022-11-15T08:33:43;7.37;;;2.50;;
6868;SDS011;3473;42.604;23.496;2022-11-15T08:35:15;6.50;;;2.67;;
6868;SDS011;3473;42.604;23.496;2022-11-15T08:36:46;5.33;;;2.10;;
6868;SDS011;3473;42.604;23.496;2022-11-15T08:38:18;7.23;;;2.97;;
6868;SDS011;3473;42.604;23.496;2022-11-15T08:39:49;7.07;;;2.50;;
6868;SDS011;3473;42.604;23.496;2022-11-15T08:41:24;8.67;;;3.17;;
6868;SDS011;3473;42.604;23.496;2022-11-15T08:42:57;8.20;;;2.83;;
6868;SDS011;3473;42.604;23.496;2022-11-15T08:44:28;5.77;;;2.63;;
6868;SDS011;3473;42.604;23.496;2022-11-15T08:46:00;9.63;;;3.10;;
6868;SDS011;3473;42.604;23.496;2022-11-15T08:47:31;4.87;;;2.40;;
6868;SDS011;3473;42.604;23.496;2022-11-15T08:49:03;8.37;;;3.00;;
6868;SDS011;3473;42.604;23.496;2022-11-15T08:50:34;8.00;;;2.17;;
6868;SDS011;3473;42.604;23.496;2022-11-15T08:52:06;8.57;;;2.57;;
6868;SDS011;3473;42.604;23.496;2022-11-15T08:53:38;11.53;;;3.33;;
6868;SDS011;3473;42.604;23.496;2022-11-15T08:55:09;4.87;;;2.80;;
6868;SDS011;3473;42.604;23.496;2022-11-15T08:56:41;15.30;;;4.60;;
6868;SDS011;3473;42.604;23.496;2022-11-15T08:58:14;10.67;;;3.67;;
6868;SDS011;3473;42.604;23.496;2022-11-15T08:59:45;2.83;;;1.97;;
6868;SDS011;3473;42.604;23.496;2022-11-15T09:01:17;11.00;;;3.13;;
6868;SDS011;3473;42.604;23.496;2022-11-15T09:02:49;14.80;;;2.43;;
6868;SDS011;3473;42.604;23.496;2022-11-15T09:04:20;11.50;;;2.83;;
6868;SDS011;3473;42.604;23.496;2022-11-15T09:05:53;5.40;;;3.07;;
6868;SDS011;3473;42.604;23.496;2022-11-15T09:07:25;9.43;;;3.13;;
6868;SDS011;3473;42.604;23.496;2022-11-15T09:09:00;11.03;;;3.40;;
6868;SDS011;3473;42.604;23.496;2022-11-15T09:10:31;8.13;;;3.77;;
6868;SDS011;3473;42.604;23.496;2022-11-15T09:12:02;6.67;;;3.20;;
6868;SDS011;3473;42.604;23.496;2022-11-15T09:13:35;9.97;;;3.63;;
6868;SDS011;3473;42.604;23.496;2022-11-15T09:15:07;8.13;;;3.37;;
6868;SDS011;3473;42.604;23.496;2022-11-15T09:16:39;11.20;;;3.00;;
6868;SDS011;3473;42.604;23.496;2022-11-15T09:18:10;6.30;;;3.53;;
6868;SDS011;3473;42.604;23.496;2022-11-15T09:19:42;10.63;;;3.17;;
6868;SDS011;3473;42.604;23.496;2022-11-15T09:21:13;8.17;;;3.20;;
6868;SDS011;3473;42.604;23.496;2022-11-15T09:22:45;8.07;;;3.50;;
6868;SDS011;3473;42.604;23.496;2022-11-15T09:24:16;4.40;;;2.87;;
6868;SDS011;3473;42.604;23.496;2022-11-15T09:25:48;10.07;;;3.27;;
6868;SDS011;3473;42.604;23.496;2022-11-15T09:27:19;8.63;;;3.53;;